createdAt,value
2022-08-20T00:02:14.812Z,100519.72
2022-08-20T00:07:15.015Z,100541.56
2022-08-20T00:12:17.844Z,100552.22
2022-08-20T00:17:19.269Z,100557.81
2022-08-20T00:22:21.234Z,100577.88
2022-08-20T00:27:19.951Z,100561.38
2022-08-20T00:32:23.438Z,100552.31
2022-08-20T00:37:22.069Z,100551.50
2022-08-20T00:42:35.043Z,100571.00
2022-08-20T00:47:32.757Z,100568.31
2022-08-20T00:52:31.622Z,100533.66
2022-08-20T00:58:00.015Z,100545.41
2022-08-20T01:03:04.367Z,100545.41
2022-08-20T01:08:13.042Z,100539.56
2022-08-20T01:13:21.440Z,100549.19
2022-08-20T01:18:25.374Z,100519.53
2022-08-20T01:23:34.595Z,100563.53
2022-08-20T01:28:45.545Z,100536.66
2022-08-20T01:33:49.909Z,100525.41
2022-08-20T01:38:54.204Z,100560.38
2022-08-20T01:43:57.206Z,100529.97
2022-08-20T01:49:02.909Z,100528.34
2022-08-20T01:54:14.323Z,100531.25
2022-08-20T01:59:12.698Z,100520.88
2022-08-20T02:04:15.113Z,100518.16
2022-08-20T02:09:16.210Z,100553.13
2022-08-20T02:14:15.817Z,100520.31
2022-08-20T02:19:20.723Z,100533.94
2022-08-20T02:24:22.716Z,100523.00
2022-08-20T02:29:26.347Z,100542.41
2022-08-20T02:34:25.116Z,100540.28
2022-08-20T02:39:23.380Z,100529.34
2022-08-20T02:44:22.676Z,100516.94
2022-08-20T02:49:21.105Z,100497.00
2022-08-20T02:54:20.271Z,100500.41
2022-08-20T02:59:21.228Z,100538.47
2022-08-20T03:04:22.913Z,100505.88
2022-08-20T03:09:25.043Z,100522.72
2022-08-20T03:14:24.237Z,100502.19
2022-08-20T03:19:26.513Z,100512.56
2022-08-20T03:24:27.438Z,100511.75
2022-08-20T03:29:26.056Z,100516.31
2022-08-20T03:34:26.948Z,100536.34
2022-08-20T03:39:28.259Z,100504.81
2022-08-20T03:44:29.737Z,100531.72
2022-08-20T03:49:28.109Z,100526.47
2022-08-20T03:54:32.040Z,100551.84
2022-08-20T03:59:33.235Z,100557.13
2022-08-20T04:04:32.158Z,100559.56
2022-08-20T04:09:35.660Z,100522.50
2022-08-20T04:14:37.469Z,100524.09
2022-08-20T04:19:36.903Z,100519.53
2022-08-20T04:24:37.423Z,100523.00
2022-08-20T04:29:37.024Z,100559.59
2022-08-20T04:34:34.913Z,100557.47
2022-08-20T04:39:35.928Z,100559.31
2022-08-20T04:44:37.086Z,100539.56
2022-08-20T04:49:38.110Z,100546.72
2022-08-20T04:54:39.136Z,100564.06
2022-08-20T04:59:41.516Z,100556.34
2022-08-20T05:04:40.266Z,100560.63
2022-08-20T05:09:44.053Z,100568.63
2022-08-20T05:14:42.706Z,100553.69
2022-08-20T05:19:41.788Z,100553.97
2022-08-20T05:24:53.694Z,100573.19
2022-08-20T05:29:54.949Z,100555.59
2022-08-20T05:34:52.965Z,100556.63
2022-08-20T05:39:53.744Z,100546.94
2022-08-20T05:44:58.404Z,100585.63
2022-08-20T05:49:59.697Z,100580.59
2022-08-20T05:55:02.033Z,100545.13
2022-08-20T06:00:06.621Z,100553.66
2022-08-20T06:05:11.902Z,100537.31
2022-08-20T06:10:10.993Z,100550.88
2022-08-20T06:15:31.149Z,100540.91
2022-08-20T06:20:29.575Z,100548.31
2022-08-20T06:25:31.542Z,100549.25
2022-08-20T06:30:34.035Z,100551.97
2022-08-20T06:35:37.915Z,100582.41
2022-08-20T06:40:40.695Z,100569.56
2022-08-20T06:45:42.060Z,100566.56
2022-08-20T06:50:47.148Z,100571.63
2022-08-20T06:55:50.801Z,100560.13
2022-08-20T07:00:52.764Z,100567.75
2022-08-20T07:05:55.269Z,100562.50
2022-08-20T07:10:56.942Z,100534.41
2022-08-20T07:15:55.234Z,100546.13
2022-08-20T07:20:55.109Z,100548.09
2022-08-20T07:25:55.033Z,100536.84
2022-08-20T07:31:15.852Z,100540.47
2022-08-20T07:36:15.754Z,100532.25
2022-08-20T07:41:17.334Z,100552.94
2022-08-20T07:46:21.216Z,100546.03
2022-08-20T07:51:21.055Z,100547.56
2022-08-20T07:56:24.227Z,100542.72
2022-08-20T08:01:38.802Z,100547.72
2022-08-20T08:06:37.419Z,100511.28
2022-08-20T08:11:40.035Z,100511.09
2022-08-20T08:16:48.092Z,100489.78
2022-08-20T08:21:47.007Z,100503.34
2022-08-20T08:26:50.320Z,100500.31
2022-08-20T08:31:50.336Z,100515.09
2022-08-20T08:36:52.025Z,100472.75
2022-08-20T08:41:57.432Z,100468.84
2022-08-20T08:47:03.296Z,100462.06
2022-08-20T08:52:18.993Z,100447.78
2022-08-20T08:57:21.311Z,100466.41
2022-08-20T09:02:39.939Z,100468.56
2022-08-20T09:08:13.675Z,100442.88
2022-08-20T09:13:28.182Z,100460.06
2022-08-20T09:18:29.047Z,100440.19
2022-08-20T09:23:35.932Z,100450.03
2022-08-20T09:28:40.054Z,100427.22
2022-08-20T09:33:41.634Z,100433.25
2022-08-20T09:38:43.450Z,100416.91
2022-08-20T09:43:59.464Z,100450.13
2022-08-20T09:49:00.479Z,100455.50
2022-08-20T09:54:03.938Z,100412.31
2022-08-20T09:59:03.178Z,100396.72
2022-08-20T10:04:13.915Z,100393.56
2022-08-20T10:09:15.301Z,100406.09
2022-08-20T10:14:18.261Z,100395.66
2022-08-20T10:19:19.636Z,100384.81
2022-08-20T10:24:18.312Z,100379.56
2022-08-20T10:29:19.514Z,100373.06
2022-08-20T10:34:27.560Z,100375.44
2022-08-20T10:39:28.658Z,100400.91
2022-08-20T10:44:36.513Z,100381.53
2022-08-20T10:49:40.819Z,100391.81
2022-08-20T10:54:43.601Z,100402.75
2022-08-20T10:59:45.814Z,100387.47
2022-08-20T11:04:46.867Z,100364.00
2022-08-20T11:09:53.351Z,100383.03
2022-08-20T11:14:52.561Z,100345.53
2022-08-20T11:19:55.004Z,100349.75
2022-08-20T11:24:53.786Z,100381.50
2022-08-20T11:29:54.865Z,100347.78
2022-08-20T11:34:55.142Z,100360.28
2022-08-20T11:39:56.803Z,100369.31
2022-08-20T11:45:00.086Z,100342.66
2022-08-20T11:50:16.479Z,100335.16
2022-08-20T11:55:21.327Z,100325.66
2022-08-20T12:00:33.981Z,100333.09
2022-08-20T12:05:33.222Z,100326.78
2022-08-20T12:10:45.518Z,100322.78
2022-08-20T12:15:52.465Z,100349.06
2022-08-20T12:20:58.909Z,100331.94
2022-08-20T12:25:59.273Z,100312.53
2022-08-20T12:30:59.024Z,100318.50
2022-08-20T12:36:02.672Z,100298.41
2022-08-20T12:41:03.548Z,100298.44
2022-08-20T12:46:06.340Z,100288.81
2022-08-20T12:51:21.618Z,100273.38
2022-08-20T12:56:20.946Z,100278.38
2022-08-20T13:01:21.107Z,100283.41
2022-08-20T13:06:31.187Z,100289.84
2022-08-20T13:11:57.511Z,100272.16
2022-08-20T13:17:12.990Z,100264.09
2022-08-20T13:22:15.829Z,100261.09
2022-08-20T13:27:31.801Z,100266.94
2022-08-20T13:32:30.054Z,100241.03
2022-08-20T13:37:44.853Z,100262.13
2022-08-20T13:42:46.142Z,100228.69
2022-08-20T13:47:44.871Z,100248.59
2022-08-20T13:52:46.563Z,100223.03
2022-08-20T13:57:49.357Z,100203.59
2022-08-20T14:02:50.846Z,100221.25
2022-08-20T14:07:51.177Z,100237.97
2022-08-20T14:12:49.911Z,100217.59
2022-08-20T14:17:55.271Z,100213.16
2022-08-20T14:22:57.259Z,100220.06
2022-08-20T14:27:59.282Z,100197.63
2022-08-20T14:33:10.964Z,100189.97
2022-08-20T14:38:14.816Z,100199.03
2022-08-20T14:43:18.995Z,100185.63
2022-08-20T14:48:17.499Z,100185.31
2022-08-20T14:53:19.440Z,100207.88
2022-08-20T14:58:20.830Z,100203.97
2022-08-20T15:03:29.096Z,100199.84
2022-08-20T15:08:31.749Z,100195.25
2022-08-20T15:13:33.486Z,100171.28
2022-08-20T15:18:34.392Z,100177.78
2022-08-20T15:23:36.931Z,100171.91
2022-08-20T15:28:35.325Z,100198.34
2022-08-20T15:33:36.437Z,100170.06
2022-08-20T15:38:37.024Z,100176.97
2022-08-20T15:43:40.177Z,100183.13
2022-08-20T15:48:48.215Z,100204.53
2022-08-20T15:54:06.955Z,100203.88
2022-08-20T15:59:29.236Z,100229.38
2022-08-20T16:04:49.820Z,100230.72
2022-08-20T16:10:00.285Z,100215.22
2022-08-20T16:15:10.586Z,100201.53
2022-08-20T16:20:42.256Z,100196.34
2022-08-20T16:26:23.979Z,100233.66
2022-08-20T16:31:56.095Z,100207.44
2022-08-20T16:37:16.720Z,100236.22
2022-08-20T16:42:29.062Z,100199.16
2022-08-20T16:47:44.114Z,100242.06
2022-08-20T16:58:10.153Z,100208.44
2022-08-20T17:03:46.644Z,100242.56
2022-08-20T17:08:49.808Z,100233.69
2022-08-20T17:14:13.010Z,100250.31
2022-08-20T17:19:24.025Z,100238.06
2022-08-20T17:24:31.792Z,100226.72
2022-08-20T17:29:37.545Z,100236.78
2022-08-20T17:34:57.723Z,100226.34
2022-08-20T17:40:20.875Z,100241.78
2022-08-20T17:45:25.841Z,100223.25
2022-08-20T17:50:31.789Z,100249.69
2022-08-20T17:55:36.479Z,100234.19
2022-08-20T18:00:36.390Z,100248.19
2022-08-20T18:05:38.695Z,100233.13
2022-08-20T18:10:51.351Z,100240.91
2022-08-20T18:15:56.068Z,100227.63
2022-08-20T18:21:14.934Z,100268.97
2022-08-20T18:26:46.695Z,100290.41
2022-08-20T18:32:01.250Z,100270.59
2022-08-20T18:37:22.393Z,100300.81
2022-08-20T18:42:39.975Z,100268.31
2022-08-20T18:47:48.959Z,100291.59
2022-08-20T18:53:31.685Z,100292.72
2022-08-20T18:58:42.294Z,100309.66
2022-08-20T19:09:31.131Z,100302.59
2022-08-20T19:15:10.576Z,100332.03
2022-08-20T19:20:37.618Z,100292.50
2022-08-20T19:25:42.863Z,100296.59
2022-08-20T19:30:43.937Z,100307.63
2022-08-20T19:35:45.347Z,100296.81
2022-08-20T19:41:11.782Z,100324.31
2022-08-20T19:46:19.978Z,100328.13
2022-08-20T19:51:52.247Z,100301.78
2022-08-20T19:56:57.514Z,100301.72
2022-08-20T20:02:20.667Z,100303.13
2022-08-20T20:07:55.165Z,100305.72
2022-08-20T20:13:13.970Z,100296.81
2022-08-20T20:18:13.694Z,100292.88
2022-08-20T20:53:53.369Z,100378.28
2022-08-20T20:58:56.076Z,100360.03
2022-08-20T21:04:14.103Z,100334.88
2022-08-20T21:09:16.350Z,100312.72
2022-08-20T21:14:20.973Z,100322.63
2022-08-20T21:19:24.395Z,100317.81
2022-08-20T21:24:30.057Z,100340.81
2022-08-20T21:29:36.988Z,100340.75
2022-08-20T21:34:38.444Z,100375.97
2022-08-20T21:39:41.441Z,100329.94
2022-08-20T21:44:56.343Z,100357.38
2022-08-20T21:49:59.951Z,100336.44
2022-08-20T21:54:59.108Z,100346.41
2022-08-20T22:00:13.242Z,100371.19
2022-08-20T22:05:34.054Z,100339.03
2022-08-20T22:10:36.402Z,100351.13
2022-08-20T22:21:36.816Z,100367.16
2022-08-20T22:26:54.881Z,100325.44
2022-08-20T22:32:05.823Z,100330.00
2022-08-20T22:37:10.026Z,100377.88
2022-08-20T22:42:16.292Z,100352.06
2022-08-20T22:47:14.961Z,100358.34
2022-08-20T22:52:12.637Z,100316.69
2022-08-20T22:57:14.755Z,100307.06
2022-08-20T23:02:19.262Z,100336.78
2022-08-20T23:07:23.580Z,100308.81
2022-08-20T23:12:27.011Z,100323.25
2022-08-20T23:17:31.645Z,100332.00
2022-08-20T23:22:33.071Z,100337.78
2022-08-20T23:27:39.607Z,100334.25
2022-08-20T23:33:02.362Z,100382.69
2022-08-20T23:38:05.835Z,100357.44
2022-08-20T23:43:04.263Z,100358.75
2022-08-20T23:48:09.307Z,100364.44
2022-08-20T23:53:12.478Z,100356.78
2022-08-20T23:58:17.540Z,100392.59
